Terminal Aerodrome Forecast
Issued by NWS Wilmington, OH

Current Version | Previous Version | Graphics & Text | Print | Product List | Glossary On
Versions: 1 2 3 4 5 6 7 8 9 10 11 12 13 14 15 16 17 18 19 20 21 22 23 24 25 26
607
FTUS41 KILN 141735
TAFDAY
TAF
KDAY 141735Z 1418/1518 36006KT P6SM BKN022 BKN200
     FM142100 36004KT P6SM SCT035 BKN200
     FM150200 VRB03KT P6SM OVC150
     FM151000 21004KT P6SM BKN040 OVC150
     FM151300 22010KT P6SM BKN035
     FM151600 24014G20KT P6SM BKN025=

USA.gov is the U.S. government's official web portal to all federal, state and local government web resources and services.